createdAt,value
2016-10-01T00:00:22.015Z,15.51
2016-10-01T00:01:21.959Z,15.52
2016-10-01T00:02:21.930Z,15.52
2016-10-01T00:03:21.555Z,15.57
2016-10-01T00:04:21.207Z,15.67
2016-10-01T00:05:21.775Z,15.81
2016-10-01T00:06:21.758Z,15.78
2016-10-01T00:07:21.376Z,15.86
2016-10-01T00:08:21.673Z,15.86
2016-10-01T00:09:21.589Z,15.94
2016-10-01T00:10:21.630Z,15.84
2016-10-01T00:11:21.374Z,15.84
2016-10-01T00:12:21.448Z,15.85
2016-10-01T00:13:20.779Z,15.81
2016-10-01T00:14:21.028Z,15.75
2016-10-01T00:15:21.296Z,15.79
2016-10-01T00:16:21.735Z,15.85
2016-10-01T00:17:21.656Z,15.99
2016-10-01T00:18:21.171Z,15.82
2016-10-01T00:19:21.104Z,15.75
2016-10-01T00:20:21.055Z,15.86
2016-10-01T00:21:20.693Z,15.88
2016-10-01T00:22:20.948Z,15.88
2016-10-01T00:23:20.992Z,15.85
2016-10-01T00:24:20.749Z,15.78
2016-10-01T00:25:21.010Z,15.7
2016-10-01T00:26:20.741Z,15.49
2016-10-01T00:27:20.291Z,15.51
2016-10-01T00:28:20.869Z,15.45
2016-10-01T00:29:20.500Z,15.43
2016-10-01T00:30:20.758Z,15.36
2016-10-01T00:31:20.494Z,15.39
2016-10-01T00:32:20.680Z,15.38
2016-10-01T00:33:20.506Z,15.3
2016-10-01T00:34:20.370Z,15.36
2016-10-01T00:35:20.315Z,15.38
2016-10-01T00:36:20.485Z,15.35
2016-10-01T00:37:20.224Z,15.28
2016-10-01T00:38:19.868Z,15.38
2016-10-01T00:39:19.818Z,15.39
2016-10-01T00:40:20.313Z,15.38
2016-10-01T00:41:20.034Z,15.42
2016-10-01T00:42:19.723Z,15.33
2016-10-01T00:43:20.000Z,15.3
2016-10-01T00:44:20.089Z,15.36
2016-10-01T00:45:19.832Z,15.36
2016-10-01T00:46:19.673Z,15.33
2016-10-01T00:47:19.731Z,15.36
2016-10-01T00:48:19.588Z,15.36
2016-10-01T00:49:19.840Z,15.36
2016-10-01T00:50:19.592Z,15.39
2016-10-01T00:51:19.232Z,15.39
2016-10-01T00:52:19.510Z,15.46
2016-10-01T00:53:19.468Z,15.52
2016-10-01T00:54:19.071Z,15.54
2016-10-01T00:55:19.346Z,15.46
2016-10-01T00:56:19.293Z,15.31
2016-10-01T00:57:18.943Z,15.28
2016-10-01T00:58:18.938Z,15.28
2016-10-01T00:59:18.840Z,15.3
2016-10-01T01:00:18.785Z,15.26
2016-10-01T01:01:19.046Z,15.31
2016-10-01T01:02:18.896Z,15.33
2016-10-01T01:03:18.640Z,15.3
2016-10-01T01:04:18.908Z,15.31
2016-10-01T01:05:18.836Z,15.27
2016-10-01T01:06:18.497Z,15.31
2016-10-01T01:07:18.766Z,15.3
2016-10-01T01:08:18.698Z,15.43
2016-10-01T01:09:18.341Z,15.54
2016-10-01T01:10:18.297Z,15.57
2016-10-01T01:11:18.267Z,15.56
2016-10-01T01:12:18.512Z,15.52
2016-10-01T01:13:18.664Z,15.51
2016-10-01T01:14:18.443Z,15.61
2016-10-01T01:15:18.816Z,15.66
2016-10-01T01:16:18.018Z,15.68
2016-10-01T01:17:18.276Z,15.63
2016-10-01T01:18:18.233Z,15.59
2016-10-01T01:19:18.168Z,15.7
2016-10-01T01:20:18.015Z,15.66
2016-10-01T01:21:18.011Z,15.54
2016-10-01T01:22:17.933Z,15.48
2016-10-01T01:23:17.992Z,15.38
2016-10-01T01:24:18.132Z,15.33
2016-10-01T01:25:17.577Z,15.36
2016-10-01T01:26:17.532Z,15.31
2016-10-01T01:27:17.476Z,15.36
2016-10-01T01:28:17.422Z,15.28
2016-10-01T01:29:17.922Z,15.33
2016-10-01T01:30:17.650Z,15.26
2016-10-01T01:31:17.665Z,15.2
2016-10-01T01:32:17.641Z,15.3
2016-10-01T01:33:17.180Z,15.3
2016-10-01T01:34:17.129Z,15.3
2016-10-01T01:35:17.389Z,15.27
2016-10-01T01:36:17.028Z,15.27
2016-10-01T01:37:17.345Z,15.15
2016-10-01T01:38:16.928Z,15.2
2016-10-01T01:39:16.882Z,15.21
2016-10-01T01:40:17.368Z,15.23
2016-10-01T01:41:16.791Z,15.26
2016-10-01T01:42:16.743Z,15.31
2016-10-01T01:43:16.692Z,15.35
2016-10-01T01:44:16.644Z,15.36
2016-10-01T01:45:17.526Z,15.3
2016-10-01T01:46:16.853Z,15.31
2016-10-01T01:47:16.486Z,15.21
2016-10-01T01:48:16.755Z,15.31
2016-10-01T01:49:16.389Z,15.24
2016-10-01T01:50:16.868Z,15.28
2016-10-01T01:51:16.302Z,15.23
2016-10-01T01:52:15.945Z,15.27
2016-10-01T01:53:16.202Z,15.23
2016-10-01T01:54:16.174Z,15.27
2016-10-01T01:55:16.409Z,15.27
2016-10-01T01:56:16.362Z,15.13
2016-10-01T01:57:16.712Z,15.12
2016-10-01T01:58:15.653Z,15.13
2016-10-01T01:59:16.252Z,15.17
2016-10-01T02:00:15.865Z,15.26
2016-10-01T02:01:16.011Z,15.26
2016-10-01T02:02:16.262Z,15.26
2016-10-01T02:03:15.771Z,15.36
2016-10-01T02:04:15.988Z,15.41
2016-10-01T02:05:16.128Z,15.31
2016-10-01T02:06:15.574Z,15.24
2016-10-01T02:07:15.511Z,15.24
2016-10-01T02:08:15.760Z,15.21
2016-10-01T02:09:16.003Z,15.13
2016-10-01T02:10:15.865Z,15.12
2016-10-01T02:11:15.308Z,15.01
2016-10-01T02:12:15.590Z,14.9
2016-10-01T02:13:15.527Z,15.01
2016-10-01T02:14:15.473Z,15.02
2016-10-01T02:15:15.434Z,15.03
2016-10-01T02:16:15.589Z,15.19
2016-10-01T02:17:15.341Z,15.13
2016-10-01T02:18:15.282Z,15.08
2016-10-01T02:19:15.241Z,15.12
2016-10-01T02:20:15.195Z,15.11
2016-10-01T02:21:15.130Z,15.13
2016-10-01T02:22:14.770Z,15.06
2016-10-01T02:23:15.045Z,15.03
2016-10-01T02:24:15.002Z,15.08
2016-10-01T02:25:14.840Z,15.03
2016-10-01T02:26:14.878Z,15.13
2016-10-01T02:27:14.853Z,15.12
2016-10-01T02:28:14.988Z,15.13
2016-10-01T02:29:14.737Z,15.19
2016-10-01T02:30:14.697Z,15.12
2016-10-01T02:31:14.341Z,15.15
2016-10-01T02:32:14.584Z,15.05
2016-10-01T02:33:14.555Z,15.01
2016-10-01T02:34:14.524Z,15.03
2016-10-01T02:35:14.460Z,15.19
2016-10-01T02:36:14.409Z,15.12
2016-10-01T02:37:14.545Z,15.12
2016-10-01T02:38:14.500Z,15.06
2016-10-01T02:39:14.464Z,14.93
2016-10-01T02:40:14.395Z,14.93
2016-10-01T02:41:14.045Z,14.87
2016-10-01T02:42:14.107Z,14.83
2016-10-01T02:43:13.746Z,14.88
2016-10-01T02:44:28.578Z,14.91
2016-10-01T02:45:13.964Z,14.75
2016-10-01T02:46:14.099Z,14.87
2016-10-01T02:47:13.562Z,14.88
2016-10-01T02:48:13.817Z,14.75
2016-10-01T02:49:13.765Z,14.64
2016-10-01T02:50:13.940Z,14.67
2016-10-01T02:51:13.697Z,14.64
2016-10-01T02:52:13.919Z,14.64
2016-10-01T02:53:13.261Z,14.61
2016-10-01T02:54:13.513Z,14.68
2016-10-01T02:55:13.153Z,14.8
2016-10-01T02:56:13.311Z,14.95
2016-10-01T02:57:13.368Z,15.03
2016-10-01T02:58:12.928Z,15.05
2016-10-01T02:59:12.973Z,15.13
2016-10-01T03:00:12.919Z,15.2
2016-10-01T03:01:13.191Z,15.27
2016-10-01T03:02:12.807Z,15.23
2016-10-01T03:03:13.073Z,15.27
2016-10-01T03:04:12.722Z,15.26
2016-10-01T03:05:12.658Z,15.28
2016-10-01T03:06:13.131Z,15.26
2016-10-01T03:07:12.906Z,15.3
2016-10-01T03:08:12.520Z,15.21
2016-10-01T03:09:12.160Z,15.15
2016-10-01T03:10:12.414Z,15.02
2016-10-01T03:11:12.075Z,15.02
2016-10-01T03:12:12.639Z,14.99
2016-10-01T03:13:12.268Z,14.95
2016-10-01T03:14:12.539Z,14.88
2016-10-01T03:15:12.474Z,14.93
2016-10-01T03:16:12.135Z,14.88
2016-10-01T03:17:12.373Z,14.95
2016-10-01T03:18:12.033Z,14.95
2016-10-01T03:19:12.280Z,14.99
2016-10-01T03:20:12.225Z,15.11
2016-10-01T03:21:12.198Z,15.11
2016-10-01T03:22:12.347Z,15.01
2016-10-01T03:23:12.105Z,15.03
2016-10-01T03:24:12.127Z,15.02
2016-10-01T03:25:11.763Z,15.02
2016-10-01T03:26:11.944Z,15.08
2016-10-01T03:27:11.884Z,14.99
2016-10-01T03:28:11.930Z,14.94
2016-10-01T03:29:11.707Z,15.02
2016-10-01T03:30:11.498Z,15.01
2016-10-01T03:31:11.687Z,14.93
2016-10-01T03:32:11.652Z,14.98
2016-10-01T03:33:11.607Z,15.12
2016-10-01T03:34:11.552Z,15.15
2016-10-01T03:35:11.698Z,15.28
2016-10-01T03:36:11.356Z,15.27
2016-10-01T03:37:11.398Z,15.26
2016-10-01T03:38:10.754Z,15.3
2016-10-01T03:39:11.324Z,15.28
2016-10-01T03:40:11.305Z,15.2
2016-10-01T03:41:11.255Z,15.09
2016-10-01T03:42:11.150Z,15.09
2016-10-01T03:43:11.137Z,15.08
2016-10-01T03:44:11.070Z,15.03
2016-10-01T03:45:10.704Z,15.01
2016-10-01T03:46:10.661Z,15.2
2016-10-01T03:47:10.914Z,15.12
2016-10-01T03:48:10.871Z,15.09
2016-10-01T03:49:10.188Z,15.2
2016-10-01T03:50:10.760Z,15.28
2016-10-01T03:51:10.717Z,15.26
2016-10-01T03:52:10.376Z,15.26
2016-10-01T03:53:10.632Z,15.23
2016-10-01T03:54:10.582Z,15.24
2016-10-01T03:55:10.552Z,15.23
2016-10-01T03:56:10.484Z,15.28
2016-10-01T03:57:10.432Z,15.28
2016-10-01T03:58:10.408Z,15.21
2016-10-01T03:59:10.014Z,15.21
2016-10-01T04:00:10.177Z,15.28
2016-10-01T04:01:09.916Z,15.24
2016-10-01T04:02:09.874Z,15.11
2016-10-01T04:03:10.140Z,15.15
2016-10-01T04:04:09.782Z,15.09
2016-10-01T04:05:10.031Z,15.26
2016-10-01T04:06:09.885Z,15.31
2016-10-01T04:07:09.950Z,15.27
2016-10-01T04:08:09.573Z,15.21
2016-10-01T04:09:09.527Z,15.24
2016-10-01T04:10:09.798Z,15.27
2016-10-01T04:11:09.438Z,15.26
2016-10-01T04:12:09.376Z,15.24
2016-10-01T04:13:09.870Z,15.27
2016-10-01T04:14:09.279Z,15.31
2016-10-01T04:15:09.273Z,15.33
2016-10-01T04:16:09.186Z,15.33
2016-10-01T04:17:24.013Z,15.39
2016-10-01T04:18:08.983Z,15.36
2016-10-01T04:19:09.587Z,15.36
2016-10-01T04:20:09.571Z,15.45
2016-10-01T04:21:09.453Z,15.38
2016-10-01T04:22:09.102Z,15.36
2016-10-01T04:23:09.196Z,15.24
2016-10-01T04:24:08.487Z,15.15
2016-10-01T04:25:08.748Z,15.2
2016-10-01T04:26:09.013Z,15.12
2016-10-01T04:27:08.960Z,15.2
2016-10-01T04:28:08.892Z,15.19
2016-10-01T04:29:08.845Z,15.24
2016-10-01T04:30:08.495Z,15.3
2016-10-01T04:31:08.131Z,15.28
2016-10-01T04:32:08.699Z,15.24
2016-10-01T04:33:08.354Z,15.27
2016-10-01T04:34:08.303Z,15.24
2016-10-01T04:35:08.563Z,15.08
2016-10-01T04:36:08.524Z,15.15
2016-10-01T04:37:08.472Z,15.08
2016-10-01T04:38:08.409Z,14.98
2016-10-01T04:39:08.262Z,14.93
2016-10-01T04:40:08.013Z,15.02
2016-10-01T04:41:07.962Z,15.13
2016-10-01T04:42:08.218Z,15.17
2016-10-01T04:43:08.209Z,15.12
2016-10-01T04:44:08.169Z,15.2
2016-10-01T04:45:08.135Z,15.01
2016-10-01T04:46:07.995Z,15.11
2016-10-01T04:47:07.671Z,15.12
2016-10-01T04:48:07.917Z,15.12
2016-10-01T04:49:07.880Z,15.08
2016-10-01T04:50:07.550Z,15.19
2016-10-01T04:51:07.771Z,15.11
2016-10-01T04:52:07.730Z,15.05
2016-10-01T04:53:07.684Z,15.03
2016-10-01T04:54:07.315Z,14.98
2016-10-01T04:55:07.807Z,14.98
2016-10-01T04:56:07.594Z,14.91
2016-10-01T04:57:07.177Z,14.84
2016-10-01T04:58:07.431Z,14.88
2016-10-01T04:59:07.375Z,14.84
2016-10-01T05:00:07.347Z,14.8
2016-10-01T05:01:06.964Z,14.75
2016-10-01T05:02:07.438Z,14.78
2016-10-01T05:03:07.206Z,14.8
2016-10-01T05:04:06.865Z,14.72
2016-10-01T05:05:06.782Z,14.87
2016-10-01T05:06:06.928Z,14.93
2016-10-01T05:07:06.685Z,14.93
2016-10-01T05:08:06.633Z,14.99
2016-10-01T05:09:06.579Z,15.03
2016-10-01T05:10:06.839Z,15.01
2016-10-01T05:11:06.173Z,14.84
2016-10-01T05:12:07.150Z,14.81
2016-10-01T05:13:06.921Z,14.69
2016-10-01T05:14:07.037Z,14.72
2016-10-01T05:15:06.502Z,14.78
2016-10-01T05:16:06.952Z,14.9
2016-10-01T05:17:06.897Z,14.88
2016-10-01T05:18:06.151Z,14.88
2016-10-01T05:19:06.597Z,14.87
2016-10-01T05:20:06.341Z,14.91
2016-10-01T05:21:06.505Z,15.02
2016-10-01T05:22:06.485Z,14.99
2016-10-01T05:23:05.899Z,15.03
2016-10-01T05:24:06.041Z,15.03
2016-10-01T05:25:06.008Z,15.02
2016-10-01T05:26:05.741Z,14.99
2016-10-01T05:27:05.387Z,15.01
2016-10-01T05:28:05.858Z,15.15
2016-10-01T05:29:05.903Z,15.15
2016-10-01T05:30:05.553Z,15.2
2016-10-01T05:31:05.801Z,15.3
2016-10-01T05:32:05.963Z,15.27
2016-10-01T05:33:05.405Z,15.24
2016-10-01T05:34:05.354Z,15.15
2016-10-01T05:35:05.312Z,15.15
2016-10-01T05:36:05.264Z,15.05
2016-10-01T05:37:05.527Z,14.93
2016-10-01T05:38:05.174Z,15.03
2016-10-01T05:39:05.410Z,14.98
2016-10-01T05:40:05.361Z,14.99
2016-10-01T05:41:05.014Z,15.01
2016-10-01T05:42:05.271Z,14.98
2016-10-01T05:43:05.216Z,14.88
2016-10-01T05:44:05.219Z,14.8
2016-10-01T05:45:05.124Z,14.78
2016-10-01T05:46:05.092Z,14.69
2016-10-01T05:47:05.021Z,14.64
2016-10-01T05:48:05.001Z,14.57
2016-10-01T05:49:04.932Z,14.56
2016-10-01T05:50:04.789Z,14.6
2016-10-01T05:51:04.728Z,14.67
2016-10-01T05:52:04.793Z,14.57
2016-10-01T05:53:04.727Z,14.65
2016-10-01T05:54:04.871Z,14.71
2016-10-01T05:55:04.230Z,14.83
2016-10-01T05:56:05.001Z,14.81
2016-10-01T05:57:04.741Z,14.61
2016-10-01T05:58:06.061Z,14.6
2016-10-01T05:59:04.862Z,14.69
2016-10-01T06:00:04.375Z,14.6
2016-10-01T06:01:04.024Z,14.64
2016-10-01T06:02:04.309Z,14.69
2016-10-01T06:03:03.938Z,14.74
2016-10-01T06:04:04.416Z,14.62
2016-10-01T06:05:04.352Z,14.67
2016-10-01T06:06:04.704Z,14.67
2016-10-01T06:07:04.249Z,14.56
2016-10-01T06:08:03.363Z,14.5
2016-10-01T06:09:03.628Z,14.67
2016-10-01T06:10:03.607Z,14.68
2016-10-01T06:11:03.832Z,14.62
2016-10-01T06:12:03.685Z,14.71
2016-10-01T06:13:05.142Z,14.75
2016-10-01T06:14:03.973Z,14.74
2016-10-01T06:15:03.332Z,14.67
2016-10-01T06:16:03.281Z,14.61
2016-10-01T06:17:03.559Z,14.54
2016-10-01T06:18:03.393Z,14.56
2016-10-01T06:19:03.834Z,14.6
2016-10-01T06:20:03.407Z,14.61
2016-10-01T06:21:03.362Z,14.62
2016-10-01T06:22:03.297Z,14.62
2016-10-01T06:23:03.147Z,14.52
2016-10-01T06:24:03.604Z,14.6
2016-10-01T06:25:02.856Z,14.57
2016-10-01T06:26:03.088Z,14.49
2016-10-01T06:27:03.057Z,14.56
2016-10-01T06:28:02.904Z,14.6
2016-10-01T06:29:02.961Z,14.56
2016-10-01T06:30:02.916Z,14.69
2016-10-01T06:31:02.876Z,14.78
2016-10-01T06:32:02.507Z,14.71
2016-10-01T06:33:02.745Z,14.75
2016-10-01T06:34:02.407Z,14.69
2016-10-01T06:35:02.353Z,14.69
2016-10-01T06:36:02.611Z,14.78
2016-10-01T06:37:02.957Z,14.64
2016-10-01T06:38:02.504Z,14.57
2016-10-01T06:39:02.683Z,14.52
2016-10-01T06:40:01.805Z,14.35
2016-10-01T06:41:02.066Z,14.37
2016-10-01T06:42:02.306Z,14.31
2016-10-01T06:43:02.268Z,14.44
2016-10-01T06:44:02.226Z,14.35
2016-10-01T06:45:02.370Z,14.37
2016-10-01T06:46:02.747Z,14.43
2016-10-01T06:47:09.801Z,14.53
2016-10-01T06:48:02.226Z,14.5
2016-10-01T06:49:01.684Z,14.54
2016-10-01T06:50:01.611Z,14.43
2016-10-01T06:51:01.891Z,14.56
2016-10-01T06:52:01.719Z,14.65
2016-10-01T06:53:01.973Z,14.83
2016-10-01T06:54:01.821Z,14.72
2016-10-01T06:55:01.663Z,14.75
2016-10-01T06:56:01.618Z,14.8
2016-10-01T06:57:01.971Z,14.78
2016-10-01T06:58:01.737Z,14.75
2016-10-01T06:59:01.898Z,14.81
2016-10-01T07:00:01.631Z,14.74
2016-10-01T07:01:01.910Z,14.81
2016-10-01T07:02:00.903Z,14.68
2016-10-01T07:03:01.284Z,14.72
2016-10-01T07:04:01.638Z,14.74
2016-10-01T07:05:01.271Z,14.69
2016-10-01T07:06:01.128Z,14.83
2016-10-01T07:07:01.295Z,14.74
2016-10-01T07:08:01.229Z,14.72
2016-10-01T07:09:00.985Z,14.74
2016-10-01T07:10:01.129Z,14.72
2016-10-01T07:11:01.508Z,14.75
2016-10-01T07:12:00.833Z,14.69
2016-10-01T07:13:00.853Z,14.81
2016-10-01T07:14:00.947Z,14.91
2016-10-01T07:15:00.404Z,14.94
2016-10-01T07:16:00.659Z,14.87
2016-10-01T07:17:01.197Z,14.86
2016-10-01T07:18:00.541Z,14.78
2016-10-01T07:19:00.499Z,14.91
2016-10-01T07:20:00.697Z,14.91
2016-10-01T07:21:00.393Z,14.8
2016-10-01T07:22:00.233Z,14.78
2016-10-01T07:22:59.984Z,14.69
2016-10-01T07:24:00.431Z,14.84
2016-10-01T07:25:00.245Z,14.91
2016-10-01T07:25:59.929Z,14.9
2016-10-01T07:27:00.308Z,14.91
2016-10-01T07:28:00.027Z,14.78
2016-10-01T07:28:59.995Z,14.8
2016-10-01T07:30:00.153Z,14.68
2016-10-01T07:31:00.126Z,14.68
2016-10-01T07:31:59.844Z,14.57
2016-10-01T07:32:59.493Z,14.65
2016-10-01T07:33:59.767Z,14.71
2016-10-01T07:34:59.697Z,14.86
2016-10-01T07:35:59.884Z,14.94
2016-10-01T07:36:59.597Z,14.86
2016-10-01T07:37:59.763Z,14.91
2016-10-01T07:38:59.597Z,14.74
2016-10-01T07:39:58.831Z,14.81
2016-10-01T07:40:58.788Z,14.69
2016-10-01T07:41:59.125Z,14.69
2016-10-01T07:42:59.495Z,14.6
2016-10-01T07:43:59.666Z,14.61
2016-10-01T07:44:59.418Z,14.61
2016-10-01T07:45:58.907Z,14.49
2016-10-01T07:46:59.336Z,14.49
2016-10-01T07:47:59.061Z,14.49
2016-10-01T07:48:58.707Z,14.5
2016-10-01T07:49:59.357Z,14.57
2016-10-01T07:50:59.120Z,14.57
2016-10-01T07:52:13.348Z,14.68
2016-10-01T07:52:59.003Z,14.65
2016-10-01T07:53:58.453Z,14.74
2016-10-01T07:54:58.409Z,14.81
2016-10-01T07:55:58.989Z,14.81
2016-10-01T07:56:58.300Z,14.72
2016-10-01T07:57:59.037Z,14.72
2016-10-01T07:58:58.511Z,14.68
2016-10-01T07:59:58.709Z,14.64
2016-10-01T08:00:58.408Z,14.68
2016-10-01T08:01:58.671Z,14.65
2016-10-01T08:02:58.195Z,14.71
2016-10-01T08:03:58.257Z,14.74
2016-10-01T08:04:58.107Z,14.78
2016-10-01T08:05:58.174Z,14.72
2016-10-01T08:06:58.116Z,14.84
2016-10-01T08:07:57.755Z,14.93
2016-10-01T08:08:57.604Z,14.95
2016-10-01T08:09:57.969Z,14.9
2016-10-01T08:10:58.123Z,14.87
2016-10-01T08:11:57.918Z,14.93
2016-10-01T08:12:58.085Z,14.94
2016-10-01T08:13:57.455Z,15.01
2016-10-01T08:14:57.472Z,15.03
2016-10-01T08:15:57.924Z,15.03
2016-10-01T08:16:57.240Z,15.11
2016-10-01T08:17:57.317Z,15.13
2016-10-01T08:18:57.792Z,15.15
2016-10-01T08:19:57.483Z,15.03
2016-10-01T08:20:57.434Z,14.99
2016-10-01T08:21:57.584Z,15.01
2016-10-01T08:22:57.042Z,14.99
2016-10-01T08:23:57.313Z,14.93
2016-10-01T08:24:57.632Z,14.9
2016-10-01T08:25:57.392Z,14.86
2016-10-01T08:26:56.735Z,14.93
2016-10-01T08:27:57.069Z,14.93
2016-10-01T08:28:57.218Z,14.91
2016-10-01T08:29:56.887Z,14.88
2016-10-01T08:30:56.918Z,14.9
2016-10-01T08:31:56.891Z,14.94
2016-10-01T08:32:56.868Z,14.9
2016-10-01T08:33:56.978Z,14.88
2016-10-01T08:34:56.748Z,14.87
2016-10-01T08:35:56.681Z,14.86
2016-10-01T08:36:56.631Z,14.74
2016-10-01T08:37:56.582Z,14.71
2016-10-01T08:38:56.555Z,14.84
2016-10-01T08:39:56.485Z,15.05
2016-10-01T08:40:56.125Z,15.12
2016-10-01T08:41:56.796Z,15.12
2016-10-01T08:42:56.534Z,15.15
2016-10-01T08:43:56.496Z,14.99
2016-10-01T08:44:56.295Z,15.02
2016-10-01T08:45:56.223Z,15.05
2016-10-01T08:46:56.234Z,15.02
2016-10-01T08:47:56.250Z,15.17
2016-10-01T08:48:56.434Z,15.15
2016-10-01T08:49:55.689Z,15.15
2016-10-01T08:50:55.936Z,15.11
2016-10-01T08:51:55.586Z,15.12
2016-10-01T08:52:55.948Z,15.03
2016-10-01T08:53:55.508Z,15.05
2016-10-01T08:54:55.746Z,15.12
2016-10-01T08:55:55.401Z,15.23
2016-10-01T08:56:55.278Z,15.17
2016-10-01T08:57:55.499Z,15.28
2016-10-01T08:58:55.783Z,15.26
2016-10-01T08:59:54.892Z,15.19
2016-10-01T09:00:54.873Z,15.17
2016-10-01T09:01:55.489Z,15.09
2016-10-01T09:02:55.168Z,15.17
2016-10-01T09:03:55.722Z,15.35
2016-10-01T09:04:55.330Z,15.33
2016-10-01T09:05:55.256Z,15.41
2016-10-01T09:06:55.466Z,15.52
2016-10-01T09:07:55.122Z,15.48
2016-10-01T09:08:55.077Z,15.49
2016-10-01T09:09:55.025Z,15.43
2016-10-01T09:10:55.189Z,15.57
2016-10-01T09:11:55.136Z,15.52
2016-10-01T09:12:54.892Z,15.66
2016-10-01T09:13:55.024Z,15.76
2016-10-01T09:14:55.397Z,15.76
2016-10-01T09:15:54.726Z,15.81
2016-10-01T09:16:54.614Z,15.76
2016-10-01T09:17:55.044Z,15.86
2016-10-01T09:18:54.797Z,15.78
2016-10-01T09:19:54.733Z,15.82
2016-10-01T09:20:54.934Z,15.82
2016-10-01T09:21:54.438Z,15.81
2016-10-01T09:22:54.786Z,15.79
2016-10-01T09:23:54.533Z,15.85
2016-10-01T09:24:54.343Z,15.86
2016-10-01T09:25:53.827Z,15.66
2016-10-01T09:26:54.216Z,15.45
2016-10-01T09:27:54.138Z,15.41
2016-10-01T09:28:54.351Z,15.41
2016-10-01T09:29:54.110Z,15.36
2016-10-01T09:30:54.430Z,15.49
2016-10-01T09:31:54.367Z,15.49
2016-10-01T09:32:53.616Z,15.48
2016-10-01T09:33:54.091Z,15.46
2016-10-01T09:34:53.848Z,15.51
2016-10-01T09:35:53.445Z,15.57
2016-10-01T09:36:53.799Z,15.6
2016-10-01T09:37:53.651Z,15.75
2016-10-01T09:38:53.596Z,15.79
2016-10-01T09:39:53.565Z,15.75
2016-10-01T09:40:52.904Z,15.76
2016-10-01T09:41:53.041Z,16.03
2016-10-01T09:42:53.000Z,15.94
2016-10-01T09:43:53.065Z,15.85
2016-10-01T09:44:53.555Z,15.82
2016-10-01T09:45:53.278Z,15.81
2016-10-01T09:46:52.627Z,15.86
2016-10-01T09:47:53.260Z,16.01
2016-10-01T09:48:52.823Z,16.01
2016-10-01T09:49:52.760Z,16.04
2016-10-01T09:50:53.017Z,16.04
2016-10-01T09:51:52.971Z,16.07
2016-10-01T09:52:53.137Z,16.04
2016-10-01T09:53:52.880Z,16.03
2016-10-01T09:54:52.838Z,16.23
2016-10-01T09:55:52.784Z,16.4
2016-10-01T09:56:53.143Z,16.26
2016-10-01T09:57:52.682Z,16.25
2016-10-01T09:58:52.841Z,16.26
2016-10-01T09:59:52.579Z,16.33
2016-10-01T10:00:52.537Z,16.25
2016-10-01T10:01:53.987Z,16.27
2016-10-01T10:02:52.344Z,16.33
2016-10-01T10:03:52.340Z,16.27
2016-10-01T10:04:52.342Z,16.37
2016-10-01T10:05:52.527Z,16.3
2016-10-01T10:06:52.890Z,16.25
2016-10-01T10:07:52.283Z,16.37
2016-10-01T10:08:52.425Z,16.44
2016-10-01T10:09:51.864Z,16.41
2016-10-01T10:10:52.058Z,16.3
2016-10-01T10:11:52.202Z,16.33
2016-10-01T10:12:52.152Z,16.23
2016-10-01T10:13:51.950Z,16.26
2016-10-01T10:14:51.660Z,16.31
2016-10-01T10:15:52.230Z,16.3
2016-10-01T10:16:51.772Z,16.26
2016-10-01T10:17:51.600Z,16.3
2016-10-01T10:18:51.704Z,16.22
2016-10-01T10:19:51.693Z,16.14
2016-10-01T10:20:51.603Z,16.22
2016-10-01T10:21:51.744Z,16.14
2016-10-01T10:22:51.488Z,16.16
2016-10-01T10:23:51.491Z,16.11
2016-10-01T10:24:51.436Z,16.11
2016-10-01T10:25:51.044Z,16.22
2016-10-01T10:26:51.736Z,16.18
2016-10-01T10:27:51.247Z,16.14
2016-10-01T10:28:51.182Z,16.16
2016-10-01T10:29:51.161Z,16.22
2016-10-01T10:30:50.479Z,16.23
2016-10-01T10:31:51.057Z,16.22
2016-10-01T10:32:50.691Z,16.25
2016-10-01T10:33:50.936Z,16.35
2016-10-01T10:34:50.902Z,16.42
2016-10-01T10:35:51.037Z,16.45
2016-10-01T10:36:50.795Z,16.49
2016-10-01T10:37:51.153Z,16.59
2016-10-01T10:38:50.714Z,16.63
2016-10-01T10:39:50.852Z,16.73
2016-10-01T10:40:50.620Z,16.73
2016-10-01T10:41:51.147Z,16.68
2016-10-01T10:42:50.511Z,16.63
2016-10-01T10:43:50.531Z,16.73
2016-10-01T10:44:50.424Z,16.68
2016-10-01T10:45:50.076Z,16.6
2016-10-01T10:46:50.548Z,16.58
2016-10-01T10:47:50.514Z,16.55
2016-10-01T10:48:50.216Z,16.55
2016-10-01T10:49:50.178Z,16.58
2016-10-01T10:50:50.332Z,16.62
2016-10-01T10:51:50.488Z,16.63
2016-10-01T10:52:50.448Z,16.71
2016-10-01T10:53:50.056Z,16.78
2016-10-01T10:54:49.928Z,16.78
2016-10-01T10:55:50.087Z,16.85
2016-10-01T10:56:50.257Z,16.92
2016-10-01T10:57:49.996Z,16.98
2016-10-01T10:58:49.989Z,16.98
2016-10-01T10:59:49.906Z,17
2016-10-01T11:00:49.346Z,16.98
2016-10-01T11:01:49.805Z,16.96
2016-10-01T11:02:49.573Z,17.06
2016-10-01T11:03:49.495Z,16.96
2016-10-01T11:04:49.461Z,17.08
2016-10-01T11:05:49.415Z,17.11
2016-10-01T11:06:49.540Z,17.03
2016-10-01T11:07:49.609Z,16.93
2016-10-01T11:08:49.364Z,16.86
2016-10-01T11:09:48.903Z,16.8
2016-10-01T11:10:49.391Z,16.9
2016-10-01T11:11:49.359Z,17.03
2016-10-01T11:12:48.992Z,17.03
2016-10-01T11:13:49.036Z,17.07
2016-10-01T11:14:49.198Z,16.96
2016-10-01T11:15:49.184Z,16.88
2016-10-01T11:16:48.888Z,16.99
2016-10-01T11:17:48.870Z,17.1
2016-10-01T11:18:48.815Z,17.17
2016-10-01T11:19:48.743Z,17.18
2016-10-01T11:20:48.738Z,17.22
2016-10-01T11:21:49.046Z,17.41
2016-10-01T11:22:48.807Z,17.44
2016-10-01T11:23:48.259Z,17.51
2016-10-01T11:24:48.700Z,17.5
2016-10-01T11:25:48.455Z,17.48
2016-10-01T11:26:48.407Z,17.62
2016-10-01T11:27:48.555Z,17.71
2016-10-01T11:28:48.331Z,17.69
2016-10-01T11:29:48.371Z,17.51
2016-10-01T11:30:48.236Z,17.55
2016-10-01T11:31:48.368Z,17.46
2016-10-01T11:32:48.543Z,17.44
2016-10-01T11:33:48.181Z,17.55
2016-10-01T11:34:48.274Z,17.51
2016-10-01T11:35:47.376Z,17.57
2016-10-01T11:36:48.042Z,17.59
2016-10-01T11:37:47.905Z,17.57
2016-10-01T11:38:47.942Z,17.59
2016-10-01T11:39:48.247Z,17.53
2016-10-01T11:40:47.649Z,17.36
2016-10-01T11:41:47.411Z,17.26
2016-10-01T11:42:47.695Z,17.25
2016-10-01T11:43:47.664Z,17.36
2016-10-01T11:44:47.775Z,17.4
2016-10-01T11:45:47.612Z,17.43
2016-10-01T11:46:47.582Z,17.43
2016-10-01T11:47:47.163Z,17.46
2016-10-01T11:48:47.831Z,17.38
2016-10-01T11:49:47.179Z,17.51
2016-10-01T11:50:47.348Z,17.47
2016-10-01T11:51:47.377Z,17.46
2016-10-01T11:52:47.227Z,17.59
2016-10-01T11:53:47.145Z,17.69
2016-10-01T11:54:47.469Z,17.79
2016-10-01T11:55:47.033Z,17.91
2016-10-01T11:56:47.400Z,17.91
2016-10-01T11:57:46.970Z,17.97
2016-10-01T11:58:46.870Z,18.06
2016-10-01T11:59:46.821Z,18.06
2016-10-01T12:00:46.689Z,17.97
2016-10-01T12:01:46.901Z,17.99
2016-10-01T12:02:46.790Z,18
2016-10-01T12:03:46.656Z,17.99
2016-10-01T12:04:46.518Z,18.09
2016-10-01T12:05:46.566Z,18.25
2016-10-01T12:06:46.409Z,18.25
2016-10-01T12:07:46.544Z,18.19
2016-10-01T12:08:46.366Z,18.15
2016-10-01T12:09:46.374Z,18.15
2016-10-01T12:10:46.577Z,18.12
2016-10-01T12:11:46.684Z,18.09
2016-10-01T12:12:45.641Z,18.15
2016-10-01T12:13:46.183Z,18.13
2016-10-01T12:14:46.160Z,17.92
2016-10-01T12:15:46.089Z,17.74
2016-10-01T12:16:46.063Z,17.64
2016-10-01T12:17:45.392Z,17.71
2016-10-01T12:18:46.352Z,17.73
2016-10-01T12:19:45.989Z,17.7
2016-10-01T12:20:47.446Z,17.71
2016-10-01T12:21:46.005Z,17.71
2016-10-01T12:22:46.073Z,17.7
2016-10-01T12:23:45.107Z,17.67
2016-10-01T12:24:45.456Z,17.64
2016-10-01T12:25:45.654Z,17.69
2016-10-01T12:26:45.630Z,17.88
2016-10-01T12:27:45.224Z,17.85
2016-10-01T12:28:45.885Z,18
2016-10-01T12:29:45.649Z,17.99
2016-10-01T12:30:45.657Z,18.03
2016-10-01T12:31:45.625Z,17.97
2016-10-01T12:32:45.314Z,17.94
2016-10-01T12:33:45.262Z,18.02
2016-10-01T12:34:45.213Z,18.15
2016-10-01T12:35:44.856Z,18.22
2016-10-01T12:36:44.813Z,18.1
2016-10-01T12:37:45.271Z,18.22
2016-10-01T12:38:44.705Z,18.13
2016-10-01T12:39:44.655Z,18
2016-10-01T12:40:45.117Z,17.97
2016-10-01T12:41:44.870Z,17.99
2016-10-01T12:42:44.548Z,17.94
2016-10-01T12:43:44.791Z,18
2016-10-01T12:44:45.136Z,18.07
2016-10-01T12:45:44.875Z,18.19
2016-10-01T12:46:44.649Z,18.22
2016-10-01T12:47:44.591Z,18.28
2016-10-01T12:48:44.541Z,18.31
2016-10-01T12:49:44.523Z,18.43
2016-10-01T12:50:44.343Z,18.54
2016-10-01T12:51:44.526Z,18.57
2016-10-01T12:52:44.128Z,18.49
2016-10-01T12:53:44.520Z,18.52
2016-10-01T12:54:44.477Z,18.5